sensor_id;sensor_type;location;lat;lon;timestamp;P1;durP1;ratioP1;P2;durP2;ratioP2
39410;SDS011;26579;43.238;23.124;2023-02-08T00:00:45;32.92;;;14.68;;
39410;SDS011;26579;43.238;23.124;2023-02-08T00:03:11;29.42;;;11.52;;
39410;SDS011;26579;43.238;23.124;2023-02-08T00:05:37;31.85;;;12.93;;
39410;SDS011;26579;43.238;23.124;2023-02-08T00:08:03;28.45;;;13.80;;
39410;SDS011;26579;43.238;23.124;2023-02-08T00:10:29;23.50;;;11.90;;
39410;SDS011;26579;43.238;23.124;2023-02-08T00:12:55;31.48;;;13.00;;
39410;SDS011;26579;43.238;23.124;2023-02-08T00:15:20;23.92;;;11.15;;
39410;SDS011;26579;43.238;23.124;2023-02-08T00:17:46;20.92;;;10.55;;
39410;SDS011;26579;43.238;23.124;2023-02-08T00:20:12;23.52;;;10.60;;
39410;SDS011;26579;43.238;23.124;2023-02-08T00:22:38;30.92;;;12.35;;
39410;SDS011;26579;43.238;23.124;2023-02-08T00:25:04;28.98;;;12.82;;
39410;SDS011;26579;43.238;23.124;2023-02-08T00:27:31;28.55;;;12.90;;
39410;SDS011;26579;43.238;23.124;2023-02-08T00:29:57;21.63;;;10.30;;
39410;SDS011;26579;43.238;23.124;2023-02-08T00:32:22;19.33;;;8.43;;
39410;SDS011;26579;43.238;23.124;2023-02-08T00:34:48;26.63;;;11.00;;
39410;SDS011;26579;43.238;23.124;2023-02-08T00:37:14;32.67;;;12.43;;
39410;SDS011;26579;43.238;23.124;2023-02-08T00:39:41;24.73;;;10.77;;
39410;SDS011;26579;43.238;23.124;2023-02-08T00:42:07;25.27;;;10.30;;
39410;SDS011;26579;43.238;23.124;2023-02-08T00:44:33;21.33;;;10.18;;
39410;SDS011;26579;43.238;23.124;2023-02-08T00:46:59;24.35;;;10.27;;
39410;SDS011;26579;43.238;23.124;2023-02-08T00:49:24;23.73;;;11.73;;
39410;SDS011;26579;43.238;23.124;2023-02-08T00:51:50;25.70;;;11.57;;
39410;SDS011;26579;43.238;23.124;2023-02-08T00:54:17;30.35;;;12.95;;
39410;SDS011;26579;43.238;23.124;2023-02-08T00:56:44;27.40;;;10.90;;
39410;SDS011;26579;43.238;23.124;2023-02-08T00:59:11;25.80;;;10.63;;
39410;SDS011;26579;43.238;23.124;2023-02-08T01:01:37;27.00;;;11.80;;
39410;SDS011;26579;43.238;23.124;2023-02-08T01:04:04;27.85;;;11.77;;
39410;SDS011;26579;43.238;23.124;2023-02-08T01:06:30;24.77;;;9.52;;
39410;SDS011;26579;43.238;23.124;2023-02-08T01:08:56;23.73;;;9.00;;
39410;SDS011;26579;43.238;23.124;2023-02-08T01:11:22;19.38;;;7.88;;
39410;SDS011;26579;43.238;23.124;2023-02-08T01:13:49;14.75;;;6.72;;
39410;SDS011;26579;43.238;23.124;2023-02-08T01:16:17;19.13;;;7.65;;
39410;SDS011;26579;43.238;23.124;2023-02-08T01:18:45;22.77;;;9.85;;
39410;SDS011;26579;43.238;23.124;2023-02-08T01:21:14;19.10;;;9.00;;
39410;SDS011;26579;43.238;23.124;2023-02-08T01:23:42;27.65;;;12.07;;
39410;SDS011;26579;43.238;23.124;2023-02-08T01:26:08;24.85;;;9.23;;
39410;SDS011;26579;43.238;23.124;2023-02-08T01:28:37;22.27;;;9.77;;
39410;SDS011;26579;43.238;23.124;2023-02-08T01:31:04;20.25;;;8.35;;
39410;SDS011;26579;43.238;23.124;2023-02-08T01:33:32;20.35;;;8.85;;
39410;SDS011;26579;43.238;23.124;2023-02-08T01:35:58;21.98;;;10.10;;
39410;SDS011;26579;43.238;23.124;2023-02-08T01:38:24;22.40;;;10.57;;
39410;SDS011;26579;43.238;23.124;2023-02-08T01:40:50;32.05;;;11.05;;
39410;SDS011;26579;43.238;23.124;2023-02-08T01:43:25;22.20;;;9.48;;
39410;SDS011;26579;43.238;23.124;2023-02-08T01:46:10;25.63;;;10.27;;
39410;SDS011;26579;43.238;23.124;2023-02-08T01:48:37;26.17;;;10.23;;
39410;SDS011;26579;43.238;23.124;2023-02-08T01:51:10;27.33;;;11.73;;
39410;SDS011;26579;43.238;23.124;2023-02-08T01:53:49;28.15;;;11.27;;
39410;SDS011;26579;43.238;23.124;2023-02-08T01:56:22;18.25;;;8.50;;
39410;SDS011;26579;43.238;23.124;2023-02-08T01:58:53;21.55;;;9.27;;
39410;SDS011;26579;43.238;23.124;2023-02-08T02:01:23;21.00;;;7.70;;
39410;SDS011;26579;43.238;23.124;2023-02-08T02:03:51;24.67;;;10.55;;
39410;SDS011;26579;43.238;23.124;2023-02-08T02:06:20;25.02;;;10.93;;
39410;SDS011;26579;43.238;23.124;2023-02-08T02:09:23;26.67;;;11.43;;
39410;SDS011;26579;43.238;23.124;2023-02-08T02:11:56;27.95;;;11.05;;
39410;SDS011;26579;43.238;23.124;2023-02-08T02:14:23;24.48;;;11.32;;
39410;SDS011;26579;43.238;23.124;2023-02-08T02:16:50;28.58;;;12.02;;
39410;SDS011;26579;43.238;23.124;2023-02-08T02:19:32;25.10;;;12.13;;
39410;SDS011;26579;43.238;23.124;2023-02-08T02:38:11;39.70;;;16.67;;
39410;SDS011;26579;43.238;23.124;2023-02-08T02:43:41;28.90;;;14.05;;
39410;SDS011;26579;43.238;23.124;2023-02-08T02:46:17;33.90;;;14.27;;
39410;SDS011;26579;43.238;23.124;2023-02-08T02:49:03;39.20;;;15.55;;
39410;SDS011;26579;43.238;23.124;2023-02-08T02:57:24;51.47;;;21.52;;
39410;SDS011;26579;43.238;23.124;2023-02-08T02:59:53;46.20;;;18.88;;
39410;SDS011;26579;43.238;23.124;2023-02-08T03:02:19;56.38;;;22.33;;
39410;SDS011;26579;43.238;23.124;2023-02-08T03:04:47;43.58;;;18.23;;
39410;SDS011;26579;43.238;23.124;2023-02-08T03:20:42;51.47;;;26.38;;
39410;SDS011;26579;43.238;23.124;2023-02-08T03:23:15;51.22;;;23.50;;
39410;SDS011;26579;43.238;23.124;2023-02-08T03:31:24;35.80;;;14.27;;
39410;SDS011;26579;43.238;23.124;2023-02-08T03:33:57;36.33;;;15.90;;
39410;SDS011;26579;43.238;23.124;2023-02-08T03:36:26;42.13;;;16.63;;
39410;SDS011;26579;43.238;23.124;2023-02-08T03:38:56;34.35;;;15.82;;
39410;SDS011;26579;43.238;23.124;2023-02-08T03:41:25;33.97;;;15.48;;
39410;SDS011;26579;43.238;23.124;2023-02-08T03:44:01;41.40;;;16.60;;
39410;SDS011;26579;43.238;23.124;2023-02-08T03:46:35;43.22;;;19.40;;
39410;SDS011;26579;43.238;23.124;2023-02-08T03:49:07;35.28;;;16.50;;
39410;SDS011;26579;43.238;23.124;2023-02-08T03:51:36;41.08;;;17.73;;
39410;SDS011;26579;43.238;23.124;2023-02-08T03:54:04;34.03;;;14.88;;
39410;SDS011;26579;43.238;23.124;2023-02-08T03:56:53;35.17;;;16.05;;
39410;SDS011;26579;43.238;23.124;2023-02-08T03:59:28;34.78;;;15.48;;
39410;SDS011;26579;43.238;23.124;2023-02-08T04:02:00;40.00;;;16.27;;
39410;SDS011;26579;43.238;23.124;2023-02-08T04:04:31;33.10;;;15.68;;
39410;SDS011;26579;43.238;23.124;2023-02-08T04:07:00;28.80;;;15.00;;
39410;SDS011;26579;43.238;23.124;2023-02-08T04:09:25;35.88;;;15.77;;
39410;SDS011;26579;43.238;23.124;2023-02-08T04:11:51;34.90;;;15.25;;
39410;SDS011;26579;43.238;23.124;2023-02-08T04:14:17;35.35;;;16.75;;
39410;SDS011;26579;43.238;23.124;2023-02-08T04:16:42;35.75;;;15.40;;
39410;SDS011;26579;43.238;23.124;2023-02-08T04:19:08;39.08;;;16.90;;
39410;SDS011;26579;43.238;23.124;2023-02-08T04:21:34;44.67;;;18.70;;
39410;SDS011;26579;43.238;23.124;2023-02-08T04:24:00;46.72;;;20.77;;
39410;SDS011;26579;43.238;23.124;2023-02-08T04:26:26;43.22;;;18.98;;
39410;SDS011;26579;43.238;23.124;2023-02-08T04:28:51;48.78;;;19.50;;
39410;SDS011;26579;43.238;23.124;2023-02-08T04:31:17;35.03;;;16.08;;
39410;SDS011;26579;43.238;23.124;2023-02-08T04:33:43;37.78;;;16.17;;
39410;SDS011;26579;43.238;23.124;2023-02-08T04:36:08;30.58;;;14.05;;
39410;SDS011;26579;43.238;23.124;2023-02-08T04:38:34;24.73;;;12.65;;
39410;SDS011;26579;43.238;23.124;2023-02-08T04:41:00;31.70;;;13.52;;
39410;SDS011;26579;43.238;23.124;2023-02-08T04:43:26;30.80;;;13.70;;
39410;SDS011;26579;43.238;23.124;2023-02-08T04:45:52;28.90;;;11.85;;
39410;SDS011;26579;43.238;23.124;2023-02-08T04:48:18;29.67;;;12.65;;
39410;SDS011;26579;43.238;23.124;2023-02-08T04:50:44;37.83;;;16.25;;
39410;SDS011;26579;43.238;23.124;2023-02-08T04:53:10;32.20;;;13.50;;
39410;SDS011;26579;43.238;23.124;2023-02-08T04:55:37;25.00;;;12.45;;
39410;SDS011;26579;43.238;23.124;2023-02-08T04:58:02;36.33;;;16.05;;
39410;SDS011;26579;43.238;23.124;2023-02-08T05:00:28;40.25;;;17.13;;
39410;SDS011;26579;43.238;23.124;2023-02-08T05:02:55;40.00;;;17.73;;
39410;SDS011;26579;43.238;23.124;2023-02-08T05:05:23;43.88;;;20.08;;
39410;SDS011;26579;43.238;23.124;2023-02-08T05:07:50;43.85;;;21.30;;
39410;SDS011;26579;43.238;23.124;2023-02-08T05:10:16;46.75;;;22.23;;
39410;SDS011;26579;43.238;23.124;2023-02-08T05:12:42;59.78;;;26.45;;
39410;SDS011;26579;43.238;23.124;2023-02-08T05:15:09;62.90;;;29.60;;
39410;SDS011;26579;43.238;23.124;2023-02-08T05:17:35;62.03;;;29.88;;
39410;SDS011;26579;43.238;23.124;2023-02-08T05:20:01;69.28;;;34.97;;
39410;SDS011;26579;43.238;23.124;2023-02-08T05:22:27;193.13;;;85.88;;
39410;SDS011;26579;43.238;23.124;2023-02-08T05:24:53;115.13;;;48.60;;
39410;SDS011;26579;43.238;23.124;2023-02-08T05:27:19;110.03;;;50.28;;
39410;SDS011;26579;43.238;23.124;2023-02-08T05:29:45;67.28;;;32.55;;
39410;SDS011;26579;43.238;23.124;2023-02-08T05:32:11;68.65;;;30.77;;
39410;SDS011;26579;43.238;23.124;2023-02-08T05:34:36;84.90;;;36.70;;
39410;SDS011;26579;43.238;23.124;2023-02-08T05:37:02;82.18;;;34.38;;
39410;SDS011;26579;43.238;23.124;2023-02-08T05:39:28;93.45;;;35.65;;
39410;SDS011;26579;43.238;23.124;2023-02-08T05:41:54;97.63;;;38.13;;
39410;SDS011;26579;43.238;23.124;2023-02-08T05:44:19;95.43;;;37.35;;
39410;SDS011;26579;43.238;23.124;2023-02-08T05:46:45;88.78;;;34.30;;
39410;SDS011;26579;43.238;23.124;2023-02-08T05:49:11;95.25;;;40.45;;
39410;SDS011;26579;43.238;23.124;2023-02-08T05:51:36;115.60;;;47.22;;
39410;SDS011;26579;43.238;23.124;2023-02-08T05:54:02;118.88;;;44.65;;
39410;SDS011;26579;43.238;23.124;2023-02-08T05:56:28;97.85;;;40.20;;
39410;SDS011;26579;43.238;23.124;2023-02-08T05:58:54;118.28;;;44.03;;
39410;SDS011;26579;43.238;23.124;2023-02-08T06:01:19;105.68;;;43.03;;
39410;SDS011;26579;43.238;23.124;2023-02-08T06:03:45;106.28;;;42.47;;
39410;SDS011;26579;43.238;23.124;2023-02-08T06:06:11;105.07;;;44.83;;
39410;SDS011;26579;43.238;23.124;2023-02-08T06:08:37;117.78;;;49.20;;
39410;SDS011;26579;43.238;23.124;2023-02-08T06:11:04;97.68;;;41.83;;
39410;SDS011;26579;43.238;23.124;2023-02-08T06:13:30;128.00;;;54.72;;
39410;SDS011;26579;43.238;23.124;2023-02-08T06:15:57;120.07;;;51.22;;
39410;SDS011;26579;43.238;23.124;2023-02-08T06:18:23;104.90;;;46.85;;
39410;SDS011;26579;43.238;23.124;2023-02-08T06:20:51;112.55;;;49.28;;
39410;SDS011;26579;43.238;23.124;2023-02-08T06:23:17;108.90;;;47.05;;
39410;SDS011;26579;43.238;23.124;2023-02-08T06:25:46;66.10;;;31.13;;
39410;SDS011;26579;43.238;23.124;2023-02-08T06:28:12;73.28;;;32.78;;
39410;SDS011;26579;43.238;23.124;2023-02-08T06:30:38;76.43;;;34.28;;
39410;SDS011;26579;43.238;23.124;2023-02-08T06:33:04;68.95;;;32.75;;
39410;SDS011;26579;43.238;23.124;2023-02-08T06:35:30;49.03;;;22.80;;
39410;SDS011;26579;43.238;23.124;2023-02-08T06:37:59;47.85;;;22.48;;
39410;SDS011;26579;43.238;23.124;2023-02-08T06:40:27;68.18;;;28.90;;
39410;SDS011;26579;43.238;23.124;2023-02-08T06:42:56;93.82;;;38.15;;
39410;SDS011;26579;43.238;23.124;2023-02-08T06:45:21;70.55;;;32.47;;
39410;SDS011;26579;43.238;23.124;2023-02-08T06:47:47;59.50;;;26.58;;
39410;SDS011;26579;43.238;23.124;2023-02-08T06:50:13;55.65;;;25.77;;
39410;SDS011;26579;43.238;23.124;2023-02-08T06:52:41;54.47;;;27.23;;
39410;SDS011;26579;43.238;23.124;2023-02-08T06:55:09;60.50;;;26.58;;
39410;SDS011;26579;43.238;23.124;2023-02-08T06:57:35;71.43;;;31.67;;
39410;SDS011;26579;43.238;23.124;2023-02-08T07:00:01;98.50;;;44.90;;
39410;SDS011;26579;43.238;23.124;2023-02-08T07:02:27;97.38;;;42.92;;
39410;SDS011;26579;43.238;23.124;2023-02-08T07:04:53;79.18;;;37.33;;
39410;SDS011;26579;43.238;23.124;2023-02-08T07:07:18;104.95;;;44.05;;
39410;SDS011;26579;43.238;23.124;2023-02-08T07:09:44;104.93;;;46.60;;
39410;SDS011;26579;43.238;23.124;2023-02-08T07:12:10;151.98;;;60.00;;
39410;SDS011;26579;43.238;23.124;2023-02-08T07:14:38;88.70;;;37.42;;
39410;SDS011;26579;43.238;23.124;2023-02-08T07:17:08;168.18;;;65.95;;
39410;SDS011;26579;43.238;23.124;2023-02-08T07:19:38;237.52;;;84.70;;
39410;SDS011;26579;43.238;23.124;2023-02-08T07:22:04;136.07;;;57.63;;
39410;SDS011;26579;43.238;23.124;2023-02-08T07:24:29;98.32;;;39.03;;
39410;SDS011;26579;43.238;23.124;2023-02-08T07:26:55;130.07;;;66.28;;
39410;SDS011;26579;43.238;23.124;2023-02-08T07:29:21;118.10;;;53.05;;
39410;SDS011;26579;43.238;23.124;2023-02-08T07:31:47;97.72;;;42.90;;
39410;SDS011;26579;43.238;23.124;2023-02-08T07:34:12;89.43;;;38.28;;
39410;SDS011;26579;43.238;23.124;2023-02-08T07:36:38;150.52;;;64.82;;
39410;SDS011;26579;43.238;23.124;2023-02-08T07:39:04;104.45;;;47.15;;
39410;SDS011;26579;43.238;23.124;2023-02-08T07:41:29;70.32;;;35.67;;
39410;SDS011;26579;43.238;23.124;2023-02-08T07:43:55;65.72;;;32.42;;
39410;SDS011;26579;43.238;23.124;2023-02-08T07:46:21;85.15;;;41.47;;
39410;SDS011;26579;43.238;23.124;2023-02-08T07:48:47;86.82;;;41.22;;
39410;SDS011;26579;43.238;23.124;2023-02-08T07:51:13;100.40;;;47.72;;
39410;SDS011;26579;43.238;23.124;2023-02-08T07:53:38;89.45;;;45.10;;
39410;SDS011;26579;43.238;23.124;2023-02-08T07:56:04;143.90;;;57.15;;
39410;SDS011;26579;43.238;23.124;2023-02-08T07:58:30;134.73;;;52.28;;
39410;SDS011;26579;43.238;23.124;2023-02-08T08:00:57;95.53;;;46.15;;
39410;SDS011;26579;43.238;23.124;2023-02-08T08:03:23;75.93;;;37.78;;
39410;SDS011;26579;43.238;23.124;2023-02-08T08:05:49;90.65;;;41.78;;
39410;SDS011;26579;43.238;23.124;2023-02-08T08:08:15;90.68;;;42.20;;
39410;SDS011;26579;43.238;23.124;2023-02-08T08:10:41;80.93;;;38.63;;
39410;SDS011;26579;43.238;23.124;2023-02-08T08:13:07;74.65;;;36.97;;
39410;SDS011;26579;43.238;23.124;2023-02-08T08:15:33;64.75;;;33.55;;
39410;SDS011;26579;43.238;23.124;2023-02-08T08:17:59;64.55;;;32.80;;
39410;SDS011;26579;43.238;23.124;2023-02-08T08:20:25;49.00;;;26.35;;
39410;SDS011;26579;43.238;23.124;2023-02-08T08:22:51;44.97;;;23.08;;
39410;SDS011;26579;43.238;23.124;2023-02-08T08:25:16;40.53;;;24.35;;
39410;SDS011;26579;43.238;23.124;2023-02-08T08:27:43;42.17;;;22.00;;
39410;SDS011;26579;43.238;23.124;2023-02-08T08:30:13;38.20;;;17.65;;
39410;SDS011;26579;43.238;23.124;2023-02-08T08:32:40;37.45;;;18.05;;
39410;SDS011;26579;43.238;23.124;2023-02-08T08:35:06;38.00;;;20.33;;
39410;SDS011;26579;43.238;23.124;2023-02-08T08:37:32;56.95;;;25.23;;
39410;SDS011;26579;43.238;23.124;2023-02-08T08:39:59;41.15;;;19.08;;
39410;SDS011;26579;43.238;23.124;2023-02-08T08:42:24;29.35;;;16.17;;
39410;SDS011;26579;43.238;23.124;2023-02-08T08:44:50;29.85;;;13.73;;
39410;SDS011;26579;43.238;23.124;2023-02-08T08:47:17;32.67;;;15.82;;
39410;SDS011;26579;43.238;23.124;2023-02-08T08:49:42;36.10;;;20.20;;
39410;SDS011;26579;43.238;23.124;2023-02-08T08:52:09;48.28;;;23.95;;
39410;SDS011;26579;43.238;23.124;2023-02-08T08:54:35;26.60;;;12.32;;
39410;SDS011;26579;43.238;23.124;2023-02-08T08:57:02;20.70;;;10.70;;
39410;SDS011;26579;43.238;23.124;2023-02-08T08:59:28;24.00;;;10.57;;
39410;SDS011;26579;43.238;23.124;2023-02-08T09:01:53;22.08;;;11.57;;
39410;SDS011;26579;43.238;23.124;2023-02-08T09:04:19;22.38;;;11.88;;
39410;SDS011;26579;43.238;23.124;2023-02-08T09:06:45;28.65;;;14.60;;
39410;SDS011;26579;43.238;23.124;2023-02-08T09:09:10;32.22;;;15.82;;
39410;SDS011;26579;43.238;23.124;2023-02-08T09:11:36;36.30;;;18.40;;
39410;SDS011;26579;43.238;23.124;2023-02-08T09:14:03;24.75;;;11.98;;
39410;SDS011;26579;43.238;23.124;2023-02-08T09:16:29;21.90;;;10.85;;
39410;SDS011;26579;43.238;23.124;2023-02-08T09:18:55;29.48;;;14.60;;
39410;SDS011;26579;43.238;23.124;2023-02-08T09:21:24;35.40;;;16.92;;
39410;SDS011;26579;43.238;23.124;2023-02-08T09:23:50;34.65;;;17.58;;
39410;SDS011;26579;43.238;23.124;2023-02-08T09:26:16;32.75;;;13.80;;
39410;SDS011;26579;43.238;23.124;2023-02-08T09:28:43;33.08;;;16.80;;
39410;SDS011;26579;43.238;23.124;2023-02-08T09:31:14;29.15;;;14.98;;
39410;SDS011;26579;43.238;23.124;2023-02-08T09:33:43;25.88;;;12.27;;
39410;SDS011;26579;43.238;23.124;2023-02-08T09:36:09;30.35;;;15.00;;
39410;SDS011;26579;43.238;23.124;2023-02-08T09:38:36;29.58;;;15.68;;
39410;SDS011;26579;43.238;23.124;2023-02-08T09:46:35;42.63;;;20.02;;
39410;SDS011;26579;43.238;23.124;2023-02-08T09:49:04;43.97;;;22.08;;
39410;SDS011;26579;43.238;23.124;2023-02-08T09:51:39;32.72;;;16.83;;
39410;SDS011;26579;43.238;23.124;2023-02-08T09:56:45;32.50;;;17.45;;
39410;SDS011;26579;43.238;23.124;2023-02-08T09:59:19;36.80;;;17.20;;
39410;SDS011;26579;43.238;23.124;2023-02-08T10:01:48;35.53;;;17.10;;
39410;SDS011;26579;43.238;23.124;2023-02-08T10:07:23;33.72;;;15.35;;
39410;SDS011;26579;43.238;23.124;2023-02-08T10:09:52;34.63;;;15.60;;
39410;SDS011;26579;43.238;23.124;2023-02-08T10:18:17;59.90;;;31.38;;
39410;SDS011;26579;43.238;23.124;2023-02-08T10:26:40;36.65;;;16.40;;
39410;SDS011;26579;43.238;23.124;2023-02-08T10:35:04;31.88;;;16.15;;
39410;SDS011;26579;43.238;23.124;2023-02-08T10:37:35;29.88;;;14.55;;
39410;SDS011;26579;43.238;23.124;2023-02-08T10:42:57;36.40;;;18.30;;
39410;SDS011;26579;43.238;23.124;2023-02-08T10:45:30;27.65;;;14.13;;
39410;SDS011;26579;43.238;23.124;2023-02-08T10:48:04;32.63;;;15.23;;
39410;SDS011;26579;43.238;23.124;2023-02-08T10:50:40;41.83;;;20.40;;
39410;SDS011;26579;43.238;23.124;2023-02-08T10:53:09;40.90;;;19.40;;
39410;SDS011;26579;43.238;23.124;2023-02-08T10:55:40;35.63;;;16.05;;
39410;SDS011;26579;43.238;23.124;2023-02-08T10:58:09;35.08;;;17.77;;
39410;SDS011;26579;43.238;23.124;2023-02-08T11:00:40;44.38;;;20.50;;
39410;SDS011;26579;43.238;23.124;2023-02-08T11:03:51;31.55;;;14.95;;
39410;SDS011;26579;43.238;23.124;2023-02-08T11:05:59;34.95;;;19.05;;
39410;SDS011;26579;43.238;23.124;2023-02-08T11:08:25;38.55;;;16.95;;
39410;SDS011;26579;43.238;23.124;2023-02-08T11:10:55;40.22;;;18.38;;
39410;SDS011;26579;43.238;23.124;2023-02-08T11:13:46;42.55;;;20.50;;
39410;SDS011;26579;43.238;23.124;2023-02-08T11:21:23;36.50;;;16.17;;
39410;SDS011;26579;43.238;23.124;2023-02-08T11:23:51;40.78;;;18.92;;
39410;SDS011;26579;43.238;23.124;2023-02-08T11:26:32;36.78;;;18.15;;
39410;SDS011;26579;43.238;23.124;2023-02-08T11:31:28;29.98;;;15.55;;
39410;SDS011;26579;43.238;23.124;2023-02-08T11:34:07;31.23;;;16.20;;
39410;SDS011;26579;43.238;23.124;2023-02-08T11:36:35;37.72;;;18.75;;
39410;SDS011;26579;43.238;23.124;2023-02-08T11:39:19;61.80;;;33.80;;
39410;SDS011;26579;43.238;23.124;2023-02-08T11:41:50;44.40;;;23.92;;
39410;SDS011;26579;43.238;23.124;2023-02-08T11:44:29;38.95;;;20.45;;
39410;SDS011;26579;43.238;23.124;2023-02-08T11:47:06;39.47;;;20.45;;
39410;SDS011;26579;43.238;23.124;2023-02-08T11:49:38;68.60;;;28.17;;
39410;SDS011;26579;43.238;23.124;2023-02-08T11:52:17;35.95;;;15.85;;
39410;SDS011;26579;43.238;23.124;2023-02-08T11:54:46;54.45;;;25.40;;
39410;SDS011;26579;43.238;23.124;2023-02-08T11:57:17;34.60;;;17.50;;
39410;SDS011;26579;43.238;23.124;2023-02-08T11:59:45;30.00;;;14.20;;
39410;SDS011;26579;43.238;23.124;2023-02-08T12:04:56;44.53;;;23.67;;
39410;SDS011;26579;43.238;23.124;2023-02-08T12:07:45;43.38;;;19.92;;
39410;SDS011;26579;43.238;23.124;2023-02-08T12:10:39;37.35;;;17.95;;
39410;SDS011;26579;43.238;23.124;2023-02-08T12:13:20;35.13;;;16.95;;
39410;SDS011;26579;43.238;23.124;2023-02-08T12:16:29;42.83;;;17.27;;
39410;SDS011;26579;43.238;23.124;2023-02-08T12:22:09;30.55;;;13.48;;
39410;SDS011;26579;43.238;23.124;2023-02-08T12:30:20;24.30;;;12.35;;
39410;SDS011;26579;43.238;23.124;2023-02-08T12:39:29;23.63;;;12.63;;
39410;SDS011;26579;43.238;23.124;2023-02-08T12:42:26;28.20;;;13.00;;
39410;SDS011;26579;43.238;23.124;2023-02-08T12:45:06;26.23;;;13.75;;
39410;SDS011;26579;43.238;23.124;2023-02-08T12:48:06;24.85;;;12.57;;
39410;SDS011;26579;43.238;23.124;2023-02-08T12:50:55;27.52;;;13.32;;
39410;SDS011;26579;43.238;23.124;2023-02-08T12:53:42;30.23;;;15.60;;
39410;SDS011;26579;43.238;23.124;2023-02-08T12:56:22;27.85;;;15.55;;
39410;SDS011;26579;43.238;23.124;2023-02-08T12:58:53;28.35;;;14.50;;
39410;SDS011;26579;43.238;23.124;2023-02-08T13:01:28;25.45;;;13.07;;
39410;SDS011;26579;43.238;23.124;2023-02-08T13:06:32;24.13;;;12.65;;
39410;SDS011;26579;43.238;23.124;2023-02-08T13:11:37;29.23;;;13.77;;
39410;SDS011;26579;43.238;23.124;2023-02-08T13:14:20;25.60;;;12.70;;
39410;SDS011;26579;43.238;23.124;2023-02-08T13:16:52;25.50;;;13.07;;
39410;SDS011;26579;43.238;23.124;2023-02-08T13:22:12;23.10;;;11.73;;
39410;SDS011;26579;43.238;23.124;2023-02-08T13:24:41;20.15;;;10.75;;
39410;SDS011;26579;43.238;23.124;2023-02-08T13:27:16;19.33;;;11.13;;
39410;SDS011;26579;43.238;23.124;2023-02-08T13:29:44;21.17;;;10.77;;
39410;SDS011;26579;43.238;23.124;2023-02-08T13:34:41;42.92;;;22.00;;
39410;SDS011;26579;43.238;23.124;2023-02-08T13:37:24;36.35;;;16.48;;
39410;SDS011;26579;43.238;23.124;2023-02-08T13:40:04;26.42;;;12.85;;
39410;SDS011;26579;43.238;23.124;2023-02-08T13:42:45;35.80;;;18.92;;
39410;SDS011;26579;43.238;23.124;2023-02-08T13:45:27;22.60;;;11.75;;
39410;SDS011;26579;43.238;23.124;2023-02-08T13:48:16;25.15;;;11.65;;
39410;SDS011;26579;43.238;23.124;2023-02-08T13:50:43;22.55;;;11.05;;
39410;SDS011;26579;43.238;23.124;2023-02-08T13:53:18;33.00;;;15.00;;
39410;SDS011;26579;43.238;23.124;2023-02-08T13:56:03;23.80;;;12.57;;
39410;SDS011;26579;43.238;23.124;2023-02-08T14:06:38;36.80;;;17.90;;
39410;SDS011;26579;43.238;23.124;2023-02-08T14:12:01;31.00;;;14.95;;
39410;SDS011;26579;43.238;23.124;2023-02-08T14:14:37;34.20;;;18.42;;
39410;SDS011;26579;43.238;23.124;2023-02-08T14:19:39;49.70;;;26.95;;
39410;SDS011;26579;43.238;23.124;2023-02-08T14:32:42;27.60;;;13.88;;
39410;SDS011;26579;43.238;23.124;2023-02-08T14:37:39;36.53;;;18.13;;
39410;SDS011;26579;43.238;23.124;2023-02-08T14:45:52;38.70;;;20.45;;
39410;SDS011;26579;43.238;23.124;2023-02-08T14:50:51;48.92;;;23.27;;
39410;SDS011;26579;43.238;23.124;2023-02-08T14:53:32;45.35;;;24.02;;
39410;SDS011;26579;43.238;23.124;2023-02-08T14:56:04;38.30;;;18.85;;
39410;SDS011;26579;43.238;23.124;2023-02-08T14:58:34;22.95;;;11.38;;
39410;SDS011;26579;43.238;23.124;2023-02-08T15:01:51;23.83;;;11.73;;
39410;SDS011;26579;43.238;23.124;2023-02-08T15:03:54;42.17;;;21.92;;
39410;SDS011;26579;43.238;23.124;2023-02-08T15:08:50;41.20;;;21.38;;
39410;SDS011;26579;43.238;23.124;2023-02-08T15:11:24;40.78;;;20.63;;
39410;SDS011;26579;43.238;23.124;2023-02-08T15:13:53;29.45;;;14.40;;
39410;SDS011;26579;43.238;23.124;2023-02-08T15:16:20;35.78;;;19.13;;
39410;SDS011;26579;43.238;23.124;2023-02-08T15:18:46;53.58;;;26.40;;
39410;SDS011;26579;43.238;23.124;2023-02-08T15:21:16;40.95;;;22.67;;
39410;SDS011;26579;43.238;23.124;2023-02-08T15:26:51;28.23;;;14.10;;
39410;SDS011;26579;43.238;23.124;2023-02-08T15:29:20;24.08;;;11.77;;
39410;SDS011;26579;43.238;23.124;2023-02-08T15:31:48;26.17;;;11.90;;
39410;SDS011;26579;43.238;23.124;2023-02-08T15:34:16;27.77;;;13.00;;
39410;SDS011;26579;43.238;23.124;2023-02-08T15:36:44;27.85;;;13.30;;
39410;SDS011;26579;43.238;23.124;2023-02-08T15:39:31;20.02;;;10.73;;
39410;SDS011;26579;43.238;23.124;2023-02-08T15:42:00;21.23;;;11.60;;
39410;SDS011;26579;43.238;23.124;2023-02-08T15:44:30;19.88;;;9.40;;
39410;SDS011;26579;43.238;23.124;2023-02-08T15:47:01;21.50;;;10.68;;
39410;SDS011;26579;43.238;23.124;2023-02-08T15:49:31;18.58;;;8.23;;
39410;SDS011;26579;43.238;23.124;2023-02-08T15:52:00;17.05;;;8.68;;
39410;SDS011;26579;43.238;23.124;2023-02-08T15:54:27;21.20;;;10.30;;
39410;SDS011;26579;43.238;23.124;2023-02-08T15:56:55;19.70;;;8.90;;
39410;SDS011;26579;43.238;23.124;2023-02-08T15:59:29;21.23;;;9.40;;
39410;SDS011;26579;43.238;23.124;2023-02-08T16:02:08;21.45;;;9.98;;
39410;SDS011;26579;43.238;23.124;2023-02-08T16:04:47;19.50;;;9.57;;
39410;SDS011;26579;43.238;23.124;2023-02-08T16:09:55;17.13;;;9.85;;
39410;SDS011;26579;43.238;23.124;2023-02-08T16:12:22;30.52;;;13.20;;
39410;SDS011;26579;43.238;23.124;2023-02-08T16:14:49;30.02;;;14.60;;
39410;SDS011;26579;43.238;23.124;2023-02-08T16:17:35;22.95;;;13.77;;
39410;SDS011;26579;43.238;23.124;2023-02-08T16:20:02;20.27;;;11.70;;
39410;SDS011;26579;43.238;23.124;2023-02-08T16:22:52;20.92;;;11.38;;
39410;SDS011;26579;43.238;23.124;2023-02-08T16:25:29;36.75;;;16.45;;
39410;SDS011;26579;43.238;23.124;2023-02-08T16:28:02;34.70;;;16.55;;
39410;SDS011;26579;43.238;23.124;2023-02-08T16:30:29;28.90;;;16.27;;
39410;SDS011;26579;43.238;23.124;2023-02-08T16:32:55;38.45;;;19.02;;
39410;SDS011;26579;43.238;23.124;2023-02-08T16:35:22;33.10;;;15.73;;
39410;SDS011;26579;43.238;23.124;2023-02-08T16:37:52;30.40;;;15.30;;
39410;SDS011;26579;43.238;23.124;2023-02-08T16:40:40;30.13;;;14.30;;
39410;SDS011;26579;43.238;23.124;2023-02-08T16:48:44;25.15;;;12.80;;
39410;SDS011;26579;43.238;23.124;2023-02-08T16:51:21;19.90;;;10.50;;
39410;SDS011;26579;43.238;23.124;2023-02-08T16:53:50;29.33;;;14.73;;
39410;SDS011;26579;43.238;23.124;2023-02-08T16:56:17;40.22;;;18.65;;
39410;SDS011;26579;43.238;23.124;2023-02-08T16:58:43;37.75;;;19.98;;
39410;SDS011;26579;43.238;23.124;2023-02-08T17:01:12;35.80;;;19.33;;
39410;SDS011;26579;43.238;23.124;2023-02-08T17:03:39;39.85;;;20.45;;